sensor_id;sensor_type;location;lat;lon;timestamp;pressure;altitude;pressure_sealevel;temperature;humidity
19590;BME280;12231;42.782;23.388;2023-06-14T00:01:16;95255.72;;;19.96;100.00
19590;BME280;12231;42.782;23.388;2023-06-14T00:03:42;95257.53;;;19.95;100.00
19590;BME280;12231;42.782;23.388;2023-06-14T00:06:07;95251.09;;;19.90;100.00
19590;BME280;12231;42.782;23.388;2023-06-14T00:08:32;95258.44;;;19.86;100.00
19590;BME280;12231;42.782;23.388;2023-06-14T00:10:58;95253.38;;;19.85;100.00
19590;BME280;12231;42.782;23.388;2023-06-14T00:13:24;95252.44;;;19.68;100.00
19590;BME280;12231;42.782;23.388;2023-06-14T00:15:49;95251.84;;;19.49;100.00
19590;BME280;12231;42.782;23.388;2023-06-14T00:18:14;95254.34;;;19.33;100.00
19590;BME280;12231;42.782;23.388;2023-06-14T00:20:41;95260.78;;;19.38;100.00
19590;BME280;12231;42.782;23.388;2023-06-14T00:23:08;95246.50;;;19.33;100.00
19590;BME280;12231;42.782;23.388;2023-06-14T00:25:33;95237.69;;;19.34;100.00
19590;BME280;12231;42.782;23.388;2023-06-14T00:27:58;95242.31;;;19.40;100.00
19590;BME280;12231;42.782;23.388;2023-06-14T00:30:24;95240.06;;;19.45;100.00
19590;BME280;12231;42.782;23.388;2023-06-14T00:32:50;95233.84;;;19.46;100.00
19590;BME280;12231;42.782;23.388;2023-06-14T00:35:16;95226.53;;;19.49;100.00
19590;BME280;12231;42.782;23.388;2023-06-14T00:37:42;95232.44;;;19.51;100.00
19590;BME280;12231;42.782;23.388;2023-06-14T00:40:07;95227.84;;;19.53;100.00
19590;BME280;12231;42.782;23.388;2023-06-14T00:42:33;95231.66;;;19.59;100.00
19590;BME280;12231;42.782;23.388;2023-06-14T00:44:59;95225.78;;;19.65;100.00
19590;BME280;12231;42.782;23.388;2023-06-14T00:47:25;95227.59;;;19.64;100.00
19590;BME280;12231;42.782;23.388;2023-06-14T00:49:53;95222.22;;;19.66;100.00
19590;BME280;12231;42.782;23.388;2023-06-14T00:52:19;95225.34;;;19.69;100.00
19590;BME280;12231;42.782;23.388;2023-06-14T00:54:44;95224.84;;;19.66;100.00
19590;BME280;12231;42.782;23.388;2023-06-14T00:57:10;95232.69;;;19.66;100.00
19590;BME280;12231;42.782;23.388;2023-06-14T00:59:42;95233.47;;;19.66;100.00
19590;BME280;12231;42.782;23.388;2023-06-14T01:02:08;95231.91;;;19.48;100.00
19590;BME280;12231;42.782;23.388;2023-06-14T01:04:33;95228.94;;;19.43;100.00
19590;BME280;12231;42.782;23.388;2023-06-14T01:07:09;95222.94;;;19.50;100.00
19590;BME280;12231;42.782;23.388;2023-06-14T01:12:33;95228.00;;;19.77;100.00
19590;BME280;12231;42.782;23.388;2023-06-14T01:15:01;95232.03;;;19.72;100.00
19590;BME280;12231;42.782;23.388;2023-06-14T01:17:28;95228.88;;;19.35;100.00
19590;BME280;12231;42.782;23.388;2023-06-14T01:20:01;95221.50;;;19.12;100.00
19590;BME280;12231;42.782;23.388;2023-06-14T01:22:28;95228.47;;;19.04;100.00
19590;BME280;12231;42.782;23.388;2023-06-14T01:24:54;95226.53;;;18.88;100.00
19590;BME280;12231;42.782;23.388;2023-06-14T01:27:23;95222.13;;;18.89;100.00
19590;BME280;12231;42.782;23.388;2023-06-14T01:29:51;95227.81;;;18.84;100.00
19590;BME280;12231;42.782;23.388;2023-06-14T01:32:18;95225.34;;;18.65;100.00
19590;BME280;12231;42.782;23.388;2023-06-14T01:34:44;95221.69;;;18.76;100.00
19590;BME280;12231;42.782;23.388;2023-06-14T01:37:11;95223.09;;;18.53;100.00
19590;BME280;12231;42.782;23.388;2023-06-14T01:39:37;95226.91;;;18.58;100.00
19590;BME280;12231;42.782;23.388;2023-06-14T01:42:02;95222.06;;;18.63;100.00
19590;BME280;12231;42.782;23.388;2023-06-14T01:44:29;95220.03;;;18.57;100.00
19590;BME280;12231;42.782;23.388;2023-06-14T01:46:56;95218.56;;;18.72;100.00
19590;BME280;12231;42.782;23.388;2023-06-14T01:49:22;95221.91;;;18.82;100.00
19590;BME280;12231;42.782;23.388;2023-06-14T01:51:47;95223.34;;;18.94;100.00
19590;BME280;12231;42.782;23.388;2023-06-14T01:54:12;95225.56;;;19.07;100.00
19590;BME280;12231;42.782;23.388;2023-06-14T01:56:38;95221.69;;;19.19;100.00
19590;BME280;12231;42.782;23.388;2023-06-14T01:59:03;95216.44;;;19.29;100.00
19590;BME280;12231;42.782;23.388;2023-06-14T02:01:29;95230.16;;;19.31;100.00
19590;BME280;12231;42.782;23.388;2023-06-14T02:03:54;95229.75;;;19.43;100.00
19590;BME280;12231;42.782;23.388;2023-06-14T02:06:19;95238.47;;;19.52;100.00
19590;BME280;12231;42.782;23.388;2023-06-14T02:08:45;95240.13;;;19.53;100.00
19590;BME280;12231;42.782;23.388;2023-06-14T02:11:10;95245.66;;;19.50;100.00
19590;BME280;12231;42.782;23.388;2023-06-14T02:13:36;95254.16;;;19.52;100.00
19590;BME280;12231;42.782;23.388;2023-06-14T02:16:01;95245.44;;;19.43;100.00
19590;BME280;12231;42.782;23.388;2023-06-14T02:18:26;95246.63;;;19.49;100.00
19590;BME280;12231;42.782;23.388;2023-06-14T02:20:52;95257.06;;;19.49;100.00
19590;BME280;12231;42.782;23.388;2023-06-14T02:23:17;95257.59;;;19.52;100.00
19590;BME280;12231;42.782;23.388;2023-06-14T02:25:43;95253.56;;;19.40;100.00
19590;BME280;12231;42.782;23.388;2023-06-14T02:28:10;95255.19;;;19.33;100.00
19590;BME280;12231;42.782;23.388;2023-06-14T02:30:35;95253.16;;;19.27;100.00
19590;BME280;12231;42.782;23.388;2023-06-14T02:33:01;95257.34;;;19.20;100.00
19590;BME280;12231;42.782;23.388;2023-06-14T02:35:27;95256.66;;;19.18;100.00
19590;BME280;12231;42.782;23.388;2023-06-14T02:37:53;95266.81;;;19.21;100.00
19590;BME280;12231;42.782;23.388;2023-06-14T02:40:19;95258.16;;;19.21;100.00
19590;BME280;12231;42.782;23.388;2023-06-14T02:42:45;95257.50;;;19.19;100.00
19590;BME280;12231;42.782;23.388;2023-06-14T02:45:11;95253.53;;;19.14;100.00
19590;BME280;12231;42.782;23.388;2023-06-14T02:47:36;95251.59;;;19.17;100.00
19590;BME280;12231;42.782;23.388;2023-06-14T02:50:02;95258.66;;;19.24;100.00
19590;BME280;12231;42.782;23.388;2023-06-14T02:52:28;95257.28;;;19.30;100.00
19590;BME280;12231;42.782;23.388;2023-06-14T02:54:53;95253.88;;;19.55;100.00
19590;BME280;12231;42.782;23.388;2023-06-14T02:57:20;95251.09;;;19.90;100.00
19590;BME280;12231;42.782;23.388;2023-06-14T02:59:45;95251.75;;;20.17;100.00
19590;BME280;12231;42.782;23.388;2023-06-14T03:02:10;95252.63;;;20.34;100.00
19590;BME280;12231;42.782;23.388;2023-06-14T03:04:36;95261.03;;;20.54;100.00
19590;BME280;12231;42.782;23.388;2023-06-14T03:07:03;95261.91;;;20.70;100.00
19590;BME280;12231;42.782;23.388;2023-06-14T03:09:38;95265.50;;;20.85;100.00
19590;BME280;12231;42.782;23.388;2023-06-14T03:12:04;95268.66;;;20.97;100.00
19590;BME280;12231;42.782;23.388;2023-06-14T03:14:32;95269.00;;;21.10;100.00
19590;BME280;12231;42.782;23.388;2023-06-14T03:16:57;95272.47;;;21.18;100.00
19590;BME280;12231;42.782;23.388;2023-06-14T03:19:24;95261.31;;;21.24;100.00
19590;BME280;12231;42.782;23.388;2023-06-14T03:21:50;95276.06;;;21.33;100.00
19590;BME280;12231;42.782;23.388;2023-06-14T03:24:16;95279.81;;;21.39;100.00
19590;BME280;12231;42.782;23.388;2023-06-14T03:26:45;95279.66;;;21.40;100.00
19590;BME280;12231;42.782;23.388;2023-06-14T03:29:10;95284.91;;;21.48;100.00
19590;BME280;12231;42.782;23.388;2023-06-14T03:31:36;95281.31;;;21.41;100.00
19590;BME280;12231;42.782;23.388;2023-06-14T03:34:01;95280.50;;;21.41;100.00
19590;BME280;12231;42.782;23.388;2023-06-14T03:36:27;95274.09;;;21.35;100.00
19590;BME280;12231;42.782;23.388;2023-06-14T03:38:55;95279.50;;;21.42;100.00
19590;BME280;12231;42.782;23.388;2023-06-14T03:41:21;95275.41;;;21.55;100.00
19590;BME280;12231;42.782;23.388;2023-06-14T03:43:46;95281.28;;;21.65;100.00
19590;BME280;12231;42.782;23.388;2023-06-14T03:46:12;95286.34;;;21.75;100.00
19590;BME280;12231;42.782;23.388;2023-06-14T03:48:37;95280.47;;;21.65;100.00
19590;BME280;12231;42.782;23.388;2023-06-14T03:51:04;95279.31;;;21.75;100.00
19590;BME280;12231;42.782;23.388;2023-06-14T03:53:30;95284.25;;;21.79;100.00
19590;BME280;12231;42.782;23.388;2023-06-14T03:55:55;95282.91;;;21.66;100.00
19590;BME280;12231;42.782;23.388;2023-06-14T03:58:22;95292.78;;;21.81;100.00
19590;BME280;12231;42.782;23.388;2023-06-14T04:00:48;95292.59;;;21.90;100.00
19590;BME280;12231;42.782;23.388;2023-06-14T04:03:14;95297.84;;;21.90;100.00
19590;BME280;12231;42.782;23.388;2023-06-14T04:05:41;95297.03;;;21.82;100.00
19590;BME280;12231;42.782;23.388;2023-06-14T04:08:10;95298.03;;;21.89;100.00
19590;BME280;12231;42.782;23.388;2023-06-14T04:10:35;95304.06;;;21.89;100.00
19590;BME280;12231;42.782;23.388;2023-06-14T04:13:01;95296.38;;;21.63;100.00
19590;BME280;12231;42.782;23.388;2023-06-14T04:15:27;95294.91;;;21.69;100.00
19590;BME280;12231;42.782;23.388;2023-06-14T04:17:55;95301.00;;;21.78;100.00
19590;BME280;12231;42.782;23.388;2023-06-14T04:20:23;95301.28;;;21.91;100.00
19590;BME280;12231;42.782;23.388;2023-06-14T04:22:50;95300.63;;;21.97;100.00
19590;BME280;12231;42.782;23.388;2023-06-14T04:25:15;95302.94;;;21.92;100.00
19590;BME280;12231;42.782;23.388;2023-06-14T04:27:43;95305.91;;;21.81;100.00
19590;BME280;12231;42.782;23.388;2023-06-14T04:30:08;95306.22;;;21.61;100.00
19590;BME280;12231;42.782;23.388;2023-06-14T04:32:34;95299.69;;;21.41;100.00
19590;BME280;12231;42.782;23.388;2023-06-14T04:35:03;95299.69;;;21.33;100.00
19590;BME280;12231;42.782;23.388;2023-06-14T04:37:29;95302.13;;;21.27;100.00
19590;BME280;12231;42.782;23.388;2023-06-14T04:39:55;95298.34;;;21.13;100.00
19590;BME280;12231;42.782;23.388;2023-06-14T04:42:22;95304.25;;;21.07;100.00
19590;BME280;12231;42.782;23.388;2023-06-14T04:44:50;95301.88;;;20.88;100.00
19590;BME280;12231;42.782;23.388;2023-06-14T04:47:16;95301.38;;;20.77;100.00
19590;BME280;12231;42.782;23.388;2023-06-14T04:49:42;95295.78;;;20.64;100.00
19590;BME280;12231;42.782;23.388;2023-06-14T04:52:07;95301.47;;;20.59;100.00
19590;BME280;12231;42.782;23.388;2023-06-14T04:54:38;95302.31;;;20.60;100.00
19590;BME280;12231;42.782;23.388;2023-06-14T04:57:04;95303.69;;;20.38;100.00
19590;BME280;12231;42.782;23.388;2023-06-14T04:59:31;95306.34;;;20.46;100.00
19590;BME280;12231;42.782;23.388;2023-06-14T05:01:58;95300.13;;;20.39;100.00
19590;BME280;12231;42.782;23.388;2023-06-14T05:04:25;95307.75;;;20.24;100.00
19590;BME280;12231;42.782;23.388;2023-06-14T05:06:52;95312.56;;;20.11;100.00
19590;BME280;12231;42.782;23.388;2023-06-14T05:09:20;95308.66;;;20.15;100.00
19590;BME280;12231;42.782;23.388;2023-06-14T05:11:46;95312.44;;;19.70;100.00
19590;BME280;12231;42.782;23.388;2023-06-14T05:14:12;95313.94;;;19.98;100.00
19590;BME280;12231;42.782;23.388;2023-06-14T05:16:38;95309.97;;;19.94;100.00
19590;BME280;12231;42.782;23.388;2023-06-14T05:19:04;95317.06;;;20.01;100.00
19590;BME280;12231;42.782;23.388;2023-06-14T05:21:30;95320.72;;;19.83;100.00
19590;BME280;12231;42.782;23.388;2023-06-14T05:23:57;95317.22;;;19.74;100.00
19590;BME280;12231;42.782;23.388;2023-06-14T05:26:22;95314.41;;;19.93;100.00
19590;BME280;12231;42.782;23.388;2023-06-14T05:28:50;95319.03;;;19.99;100.00
19590;BME280;12231;42.782;23.388;2023-06-14T05:31:17;95328.56;;;20.08;100.00
19590;BME280;12231;42.782;23.388;2023-06-14T05:33:43;95333.25;;;20.22;100.00
19590;BME280;12231;42.782;23.388;2023-06-14T05:36:08;95333.44;;;20.29;100.00
19590;BME280;12231;42.782;23.388;2023-06-14T05:38:34;95342.16;;;20.37;100.00
19590;BME280;12231;42.782;23.388;2023-06-14T05:40:59;95344.06;;;20.27;100.00
19590;BME280;12231;42.782;23.388;2023-06-14T05:43:24;95337.19;;;20.26;100.00
19590;BME280;12231;42.782;23.388;2023-06-14T05:45:50;95335.44;;;20.35;100.00
19590;BME280;12231;42.782;23.388;2023-06-14T05:48:15;95342.44;;;20.68;100.00
19590;BME280;12231;42.782;23.388;2023-06-14T05:50:41;95344.69;;;20.55;100.00
19590;BME280;12231;42.782;23.388;2023-06-14T05:53:06;95346.25;;;20.82;100.00
19590;BME280;12231;42.782;23.388;2023-06-14T05:55:31;95347.50;;;20.28;100.00
19590;BME280;12231;42.782;23.388;2023-06-14T05:57:57;95348.44;;;20.53;100.00
19590;BME280;12231;42.782;23.388;2023-06-14T06:00:22;95343.41;;;21.01;100.00
19590;BME280;12231;42.782;23.388;2023-06-14T06:02:48;95336.22;;;21.51;100.00
19590;BME280;12231;42.782;23.388;2023-06-14T06:05:13;95351.13;;;21.58;100.00
19590;BME280;12231;42.782;23.388;2023-06-14T06:07:41;95349.63;;;22.12;100.00
19590;BME280;12231;42.782;23.388;2023-06-14T06:10:07;95358.78;;;22.40;100.00
19590;BME280;12231;42.782;23.388;2023-06-14T06:12:32;95362.16;;;22.65;100.00
19590;BME280;12231;42.782;23.388;2023-06-14T06:14:59;95368.66;;;22.77;100.00
19590;BME280;12231;42.782;23.388;2023-06-14T06:17:25;95370.31;;;22.78;100.00
19590;BME280;12231;42.782;23.388;2023-06-14T06:19:50;95369.91;;;23.28;100.00
19590;BME280;12231;42.782;23.388;2023-06-14T06:22:16;95370.22;;;23.55;100.00
19590;BME280;12231;42.782;23.388;2023-06-14T06:24:42;95376.66;;;23.75;100.00
19590;BME280;12231;42.782;23.388;2023-06-14T06:27:07;95374.53;;;23.93;100.00
19590;BME280;12231;42.782;23.388;2023-06-14T06:29:37;95377.81;;;23.95;100.00
19590;BME280;12231;42.782;23.388;2023-06-14T06:32:03;95386.94;;;24.07;100.00
19590;BME280;12231;42.782;23.388;2023-06-14T06:34:28;95390.28;;;24.01;99.92
19590;BME280;12231;42.782;23.388;2023-06-14T06:36:54;95391.59;;;24.20;100.00
19590;BME280;12231;42.782;23.388;2023-06-14T06:39:20;95385.06;;;24.16;99.45
19590;BME280;12231;42.782;23.388;2023-06-14T06:41:46;95397.81;;;24.42;98.14
19590;BME280;12231;42.782;23.388;2023-06-14T06:44:11;95397.25;;;24.46;97.85
19590;BME280;12231;42.782;23.388;2023-06-14T06:46:38;95396.72;;;24.51;98.07
19590;BME280;12231;42.782;23.388;2023-06-14T06:49:06;95395.47;;;24.90;95.44
19590;BME280;12231;42.782;23.388;2023-06-14T06:51:32;95395.47;;;24.76;95.15
19590;BME280;12231;42.782;23.388;2023-06-14T06:53:57;95399.75;;;25.06;90.77
19590;BME280;12231;42.782;23.388;2023-06-14T06:56:23;95398.56;;;24.79;93.05
19590;BME280;12231;42.782;23.388;2023-06-14T06:58:50;95394.81;;;24.59;95.71
19590;BME280;12231;42.782;23.388;2023-06-14T07:01:16;95400.03;;;24.96;93.45
19590;BME280;12231;42.782;23.388;2023-06-14T07:03:41;95394.78;;;25.32;91.95
19590;BME280;12231;42.782;23.388;2023-06-14T07:06:07;95398.78;;;25.28;92.96
19590;BME280;12231;42.782;23.388;2023-06-14T07:08:32;95399.34;;;25.59;91.27
19590;BME280;12231;42.782;23.388;2023-06-14T07:10:57;95391.69;;;25.64;90.29
19590;BME280;12231;42.782;23.388;2023-06-14T07:13:23;95392.13;;;25.46;90.32
19590;BME280;12231;42.782;23.388;2023-06-14T07:15:48;95395.16;;;25.64;90.09
19590;BME280;12231;42.782;23.388;2023-06-14T07:18:14;95387.28;;;25.71;88.28
19590;BME280;12231;42.782;23.388;2023-06-14T07:20:39;95387.66;;;25.68;88.47
19590;BME280;12231;42.782;23.388;2023-06-14T07:23:05;95396.00;;;25.50;89.64
19590;BME280;12231;42.782;23.388;2023-06-14T07:25:31;95378.34;;;25.51;89.63
19590;BME280;12231;42.782;23.388;2023-06-14T07:27:56;95376.59;;;25.22;89.25
19590;BME280;12231;42.782;23.388;2023-06-14T07:30:22;95376.84;;;25.63;88.24
19590;BME280;12231;42.782;23.388;2023-06-14T07:32:51;95372.41;;;26.40;89.82
19590;BME280;12231;42.782;23.388;2023-06-14T07:35:17;95365.81;;;26.84;83.99
19590;BME280;12231;42.782;23.388;2023-06-14T07:37:43;95366.84;;;26.96;80.45
19590;BME280;12231;42.782;23.388;2023-06-14T07:40:09;95352.00;;;27.56;78.33
19590;BME280;12231;42.782;23.388;2023-06-14T07:42:35;95350.28;;;28.98;76.90
19590;BME280;12231;42.782;23.388;2023-06-14T07:45:02;95340.69;;;30.96;67.04
19590;BME280;12231;42.782;23.388;2023-06-14T07:47:27;95352.22;;;32.84;61.37
19590;BME280;12231;42.782;23.388;2023-06-14T07:49:53;95342.50;;;34.46;52.44
19590;BME280;12231;42.782;23.388;2023-06-14T07:52:18;95345.72;;;35.95;46.91
19590;BME280;12231;42.782;23.388;2023-06-14T07:54:44;95346.91;;;35.55;46.34
19590;BME280;12231;42.782;23.388;2023-06-14T07:57:09;95352.28;;;33.63;48.94
19590;BME280;12231;42.782;23.388;2023-06-14T07:59:35;95359.44;;;36.25;46.06
19590;BME280;12231;42.782;23.388;2023-06-14T08:02:01;95355.06;;;38.30;39.59
19590;BME280;12231;42.782;23.388;2023-06-14T08:04:26;95359.06;;;36.79;42.09
19590;BME280;12231;42.782;23.388;2023-06-14T08:06:51;95353.97;;;38.52;38.40
19590;BME280;12231;42.782;23.388;2023-06-14T08:09:17;95368.38;;;36.67;38.85
19590;BME280;12231;42.782;23.388;2023-06-14T08:11:42;95371.06;;;36.04;40.24
19590;BME280;12231;42.782;23.388;2023-06-14T08:14:08;95366.78;;;36.08;40.62
19590;BME280;12231;42.782;23.388;2023-06-14T08:16:33;95371.88;;;36.67;39.58
19590;BME280;12231;42.782;23.388;2023-06-14T08:18:59;95367.34;;;36.73;39.13
19590;BME280;12231;42.782;23.388;2023-06-14T08:21:25;95375.59;;;37.50;38.71
19590;BME280;12231;42.782;23.388;2023-06-14T08:23:52;95371.69;;;36.16;40.84
19590;BME280;12231;42.782;23.388;2023-06-14T08:26:18;95370.38;;;35.65;41.12
19590;BME280;12231;42.782;23.388;2023-06-14T08:28:43;95381.31;;;34.99;42.56
19590;BME280;12231;42.782;23.388;2023-06-14T08:31:09;95372.50;;;34.65;44.20
19590;BME280;12231;42.782;23.388;2023-06-14T08:33:34;95368.59;;;34.89;44.80
19590;BME280;12231;42.782;23.388;2023-06-14T08:36:00;95373.41;;;35.09;43.27
19590;BME280;12231;42.782;23.388;2023-06-14T08:38:25;95376.13;;;34.76;43.31
19590;BME280;12231;42.782;23.388;2023-06-14T08:40:52;95368.91;;;35.79;41.50
19590;BME280;12231;42.782;23.388;2023-06-14T08:43:22;95370.91;;;36.78;39.97
19590;BME280;12231;42.782;23.388;2023-06-14T08:45:48;95365.03;;;36.18;42.02
19590;BME280;12231;42.782;23.388;2023-06-14T08:48:15;95361.00;;;35.89;40.94
19590;BME280;12231;42.782;23.388;2023-06-14T08:50:43;95363.72;;;34.70;43.98
19590;BME280;12231;42.782;23.388;2023-06-14T08:53:13;95355.13;;;35.70;42.42
19590;BME280;12231;42.782;23.388;2023-06-14T08:55:44;95349.03;;;36.70;40.97
19590;BME280;12231;42.782;23.388;2023-06-14T08:58:10;95352.78;;;37.05;40.77
19590;BME280;12231;42.782;23.388;2023-06-14T09:00:39;95351.59;;;36.50;38.80
19590;BME280;12231;42.782;23.388;2023-06-14T09:03:06;95358.38;;;37.56;38.08
19590;BME280;12231;42.782;23.388;2023-06-14T09:05:38;95347.78;;;38.46;37.81
19590;BME280;12231;42.782;23.388;2023-06-14T09:08:04;95349.75;;;39.39;35.58
19590;BME280;12231;42.782;23.388;2023-06-14T09:10:31;95346.66;;;39.02;33.33
19590;BME280;12231;42.782;23.388;2023-06-14T09:13:00;95346.72;;;40.43;32.20
19590;BME280;12231;42.782;23.388;2023-06-14T09:15:26;95354.53;;;38.13;33.92
19590;BME280;12231;42.782;23.388;2023-06-14T09:17:53;95351.94;;;35.47;39.00
19590;BME280;12231;42.782;23.388;2023-06-14T09:20:18;95339.53;;;36.52;36.44
19590;BME280;12231;42.782;23.388;2023-06-14T09:22:44;95339.41;;;36.74;37.42
19590;BME280;12231;42.782;23.388;2023-06-14T09:25:10;95338.41;;;35.85;40.05
19590;BME280;12231;42.782;23.388;2023-06-14T09:27:37;95340.63;;;36.56;37.69
19590;BME280;12231;42.782;23.388;2023-06-14T09:30:06;95334.03;;;35.31;40.44
19590;BME280;12231;42.782;23.388;2023-06-14T09:32:37;95339.06;;;37.07;37.40
19590;BME280;12231;42.782;23.388;2023-06-14T09:35:05;95335.34;;;38.10;34.97
19590;BME280;12231;42.782;23.388;2023-06-14T09:37:32;95326.75;;;38.73;34.66
19590;BME280;12231;42.782;23.388;2023-06-14T09:39:58;95322.72;;;38.71;34.51
19590;BME280;12231;42.782;23.388;2023-06-14T09:42:24;95327.00;;;37.96;36.20
19590;BME280;12231;42.782;23.388;2023-06-14T09:44:54;95335.91;;;38.52;33.86
19590;BME280;12231;42.782;23.388;2023-06-14T09:47:21;95325.00;;;37.52;34.71
19590;BME280;12231;42.782;23.388;2023-06-14T09:49:48;95334.19;;;36.57;36.65
19590;BME280;12231;42.782;23.388;2023-06-14T09:52:18;95322.22;;;36.07;38.19
19590;BME280;12231;42.782;23.388;2023-06-14T09:54:44;95315.66;;;35.93;38.58
19590;BME280;12231;42.782;23.388;2023-06-14T09:57:21;95314.34;;;35.95;37.84
19590;BME280;12231;42.782;23.388;2023-06-14T09:59:48;95311.44;;;36.02;37.91
19590;BME280;12231;42.782;23.388;2023-06-14T10:02:21;95312.75;;;35.03;39.07
19590;BME280;12231;42.782;23.388;2023-06-14T10:04:56;95308.69;;;35.00;38.62
19590;BME280;12231;42.782;23.388;2023-06-14T10:20:43;95289.81;;;33.41;43.89
19590;BME280;12231;42.782;23.388;2023-06-14T10:23:17;95284.53;;;32.21;45.94
19590;BME280;12231;42.782;23.388;2023-06-14T10:25:49;95286.88;;;32.63;44.28
19590;BME280;12231;42.782;23.388;2023-06-14T10:28:20;95282.94;;;32.54;44.71
19590;BME280;12231;42.782;23.388;2023-06-14T10:33:48;95279.19;;;32.32;46.24
19590;BME280;12231;42.782;23.388;2023-06-14T10:39:07;95281.66;;;30.20;47.19
19590;BME280;12231;42.782;23.388;2023-06-14T10:41:38;95272.78;;;29.83;48.56
19590;BME280;12231;42.782;23.388;2023-06-14T10:46:41;95270.78;;;30.46;52.85
19590;BME280;12231;42.782;23.388;2023-06-14T10:49:11;95272.78;;;30.87;48.67
19590;BME280;12231;42.782;23.388;2023-06-14T10:51:41;95267.81;;;31.20;50.75
19590;BME280;12231;42.782;23.388;2023-06-14T10:54:14;95260.09;;;31.00;49.40
19590;BME280;12231;42.782;23.388;2023-06-14T10:56:50;95254.78;;;31.30;47.87
19590;BME280;12231;42.782;23.388;2023-06-14T10:59:17;95253.03;;;31.53;47.27
19590;BME280;12231;42.782;23.388;2023-06-14T11:04:50;95235.03;;;31.49;47.75
19590;BME280;12231;42.782;23.388;2023-06-14T11:13:03;95233.88;;;30.86;49.98
19590;BME280;12231;42.782;23.388;2023-06-14T11:15:36;95231.13;;;30.92;49.95
19590;BME280;12231;42.782;23.388;2023-06-14T11:18:03;95227.44;;;30.75;50.65
19590;BME280;12231;42.782;23.388;2023-06-14T11:20:34;95229.09;;;31.06;50.77
19590;BME280;12231;42.782;23.388;2023-06-14T11:23:01;95233.88;;;30.49;50.19
19590;BME280;12231;42.782;23.388;2023-06-14T11:25:27;95229.06;;;29.23;52.15
19590;BME280;12231;42.782;23.388;2023-06-14T11:27:55;95222.03;;;29.85;52.62
19590;BME280;12231;42.782;23.388;2023-06-14T11:30:21;95222.25;;;29.58;54.97
19590;BME280;12231;42.782;23.388;2023-06-14T11:32:48;95222.13;;;30.39;52.25
19590;BME280;12231;42.782;23.388;2023-06-14T11:35:15;95216.00;;;31.04;51.31
19590;BME280;12231;42.782;23.388;2023-06-14T11:37:41;95212.09;;;31.18;48.12
19590;BME280;12231;42.782;23.388;2023-06-14T11:40:08;95219.53;;;31.69;48.52
19590;BME280;12231;42.782;23.388;2023-06-14T11:42:35;95213.09;;;30.58;49.71
19590;BME280;12231;42.782;23.388;2023-06-14T11:45:01;95214.13;;;30.93;50.63
19590;BME280;12231;42.782;23.388;2023-06-14T11:47:34;95212.63;;;29.89;50.90
19590;BME280;12231;42.782;23.388;2023-06-14T11:50:01;95206.16;;;28.91;55.50
19590;BME280;12231;42.782;23.388;2023-06-14T11:52:27;95207.84;;;28.79;55.10
19590;BME280;12231;42.782;23.388;2023-06-14T11:54:53;95201.00;;;28.65;55.29
19590;BME280;12231;42.782;23.388;2023-06-14T11:57:19;95196.47;;;29.66;54.93
19590;BME280;12231;42.782;23.388;2023-06-14T11:59:45;95195.34;;;30.16;54.65
19590;BME280;12231;42.782;23.388;2023-06-14T12:02:15;95189.56;;;29.83;49.59
19590;BME280;12231;42.782;23.388;2023-06-14T12:04:42;95192.66;;;29.30;50.88
19590;BME280;12231;42.782;23.388;2023-06-14T12:07:11;95182.66;;;28.95;51.24
19590;BME280;12231;42.782;23.388;2023-06-14T12:12:25;95182.72;;;28.38;55.28
19590;BME280;12231;42.782;23.388;2023-06-14T12:14:55;95165.91;;;29.25;51.47
19590;BME280;12231;42.782;23.388;2023-06-14T12:17:22;95178.50;;;29.61;48.69
19590;BME280;12231;42.782;23.388;2023-06-14T12:19:48;95166.81;;;29.13;48.81
19590;BME280;12231;42.782;23.388;2023-06-14T12:22:16;95158.84;;;28.82;49.64
19590;BME280;12231;42.782;23.388;2023-06-14T12:24:45;95152.81;;;29.30;49.34
19590;BME280;12231;42.782;23.388;2023-06-14T12:27:11;95156.16;;;29.44;47.88
19590;BME280;12231;42.782;23.388;2023-06-14T12:29:41;95152.75;;;29.37;48.69
19590;BME280;12231;42.782;23.388;2023-06-14T12:32:10;95149.84;;;28.83;51.29
19590;BME280;12231;42.782;23.388;2023-06-14T12:34:36;95152.03;;;29.23;49.94
19590;BME280;12231;42.782;23.388;2023-06-14T12:37:01;95150.59;;;28.96;47.70
19590;BME280;12231;42.782;23.388;2023-06-14T12:39:29;95141.94;;;29.07;50.56
19590;BME280;12231;42.782;23.388;2023-06-14T12:41:56;95147.44;;;28.31;50.81
19590;BME280;12231;42.782;23.388;2023-06-14T12:44:22;95140.03;;;28.52;55.75
19590;BME280;12231;42.782;23.388;2023-06-14T12:46:48;95138.44;;;28.76;52.20
19590;BME280;12231;42.782;23.388;2023-06-14T12:49:13;95131.84;;;28.91;51.17
19590;BME280;12231;42.782;23.388;2023-06-14T12:51:39;95131.56;;;29.30;50.46
19590;BME280;12231;42.782;23.388;2023-06-14T12:54:05;95148.44;;;27.72;58.49
19590;BME280;12231;42.782;23.388;2023-06-14T12:56:31;95126.66;;;27.38;62.73
19590;BME280;12231;42.782;23.388;2023-06-14T12:58:58;95134.00;;;27.36;64.67
19590;BME280;12231;42.782;23.388;2023-06-14T13:01:24;95123.31;;;26.57;65.63
19590;BME280;12231;42.782;23.388;2023-06-14T13:03:49;95130.91;;;26.07;66.90
19590;BME280;12231;42.782;23.388;2023-06-14T13:06:17;95125.09;;;26.37;65.93
19590;BME280;12231;42.782;23.388;2023-06-14T13:08:42;95128.69;;;26.10;68.20
19590;BME280;12231;42.782;23.388;2023-06-14T13:11:08;95125.94;;;26.57;66.08
19590;BME280;12231;42.782;23.388;2023-06-14T13:13:33;95124.00;;;26.85;64.28
19590;BME280;12231;42.782;23.388;2023-06-14T13:15:59;95120.75;;;27.23;64.68
19590;BME280;12231;42.782;23.388;2023-06-14T13:18:25;95120.16;;;27.53;64.69